sensor_id;sensor_type;location;lat;lon;timestamp;P1;durP1;ratioP1;P2;durP2;ratioP2
31238;SDS011;17871;31.584;74.450;2022-11-25T00:01:39;419.38;;;172.15;;
31238;SDS011;17871;31.584;74.450;2022-11-25T00:04:08;423.02;;;167.88;;
31238;SDS011;17871;31.584;74.450;2022-11-25T00:06:37;427.92;;;170.80;;
31238;SDS011;17871;31.584;74.450;2022-11-25T00:09:08;385.08;;;147.48;;
31238;SDS011;17871;31.584;74.450;2022-11-25T00:11:40;347.40;;;138.50;;
31238;SDS011;17871;31.584;74.450;2022-11-25T00:14:11;359.67;;;145.43;;
31238;SDS011;17871;31.584;74.450;2022-11-25T00:16:42;359.98;;;145.35;;
31238;SDS011;17871;31.584;74.450;2022-11-25T00:19:14;359.35;;;144.68;;
31238;SDS011;17871;31.584;74.450;2022-11-25T00:21:44;370.85;;;146.23;;
31238;SDS011;17871;31.584;74.450;2022-11-25T00:24:13;375.70;;;147.10;;
31238;SDS011;17871;31.584;74.450;2022-11-25T00:26:43;375.10;;;146.55;;
31238;SDS011;17871;31.584;74.450;2022-11-25T00:29:12;340.52;;;141.93;;
31238;SDS011;17871;31.584;74.450;2022-11-25T00:31:42;336.67;;;135.30;;
31238;SDS011;17871;31.584;74.450;2022-11-25T00:34:12;330.20;;;135.68;;
31238;SDS011;17871;31.584;74.450;2022-11-25T00:36:42;348.45;;;133.32;;
31238;SDS011;17871;31.584;74.450;2022-11-25T00:39:14;322.98;;;128.00;;
31238;SDS011;17871;31.584;74.450;2022-11-25T00:41:46;271.35;;;121.72;;
31238;SDS011;17871;31.584;74.450;2022-11-25T00:44:34;305.27;;;122.15;;
31238;SDS011;17871;31.584;74.450;2022-11-25T00:47:09;289.15;;;121.43;;
31238;SDS011;17871;31.584;74.450;2022-11-25T00:49:44;273.85;;;114.80;;
31238;SDS011;17871;31.584;74.450;2022-11-25T00:52:16;272.48;;;112.78;;
31238;SDS011;17871;31.584;74.450;2022-11-25T00:54:48;286.58;;;112.63;;
31238;SDS011;17871;31.584;74.450;2022-11-25T00:57:19;271.13;;;111.50;;
31238;SDS011;17871;31.584;74.450;2022-11-25T00:59:51;271.38;;;117.18;;
31238;SDS011;17871;31.584;74.450;2022-11-25T01:02:21;281.80;;;114.05;;
31238;SDS011;17871;31.584;74.450;2022-11-25T01:04:53;314.42;;;114.43;;
31238;SDS011;17871;31.584;74.450;2022-11-25T01:07:25;280.55;;;112.72;;
31238;SDS011;17871;31.584;74.450;2022-11-25T01:09:56;280.25;;;112.97;;
31238;SDS011;17871;31.584;74.450;2022-11-25T01:12:27;290.05;;;118.90;;
31238;SDS011;17871;31.584;74.450;2022-11-25T01:14:58;312.35;;;124.32;;
31238;SDS011;17871;31.584;74.450;2022-11-25T01:17:29;288.17;;;123.32;;
31238;SDS011;17871;31.584;74.450;2022-11-25T01:20:00;283.02;;;122.10;;
31238;SDS011;17871;31.584;74.450;2022-11-25T01:22:32;313.85;;;123.32;;
31238;SDS011;17871;31.584;74.450;2022-11-25T01:25:03;285.08;;;119.05;;
31238;SDS011;17871;31.584;74.450;2022-11-25T01:27:34;295.90;;;119.60;;
31238;SDS011;17871;31.584;74.450;2022-11-25T01:30:10;284.50;;;116.43;;
31238;SDS011;17871;31.584;74.450;2022-11-25T01:32:41;299.20;;;122.93;;
31238;SDS011;17871;31.584;74.450;2022-11-25T01:35:11;277.95;;;123.35;;
31238;SDS011;17871;31.584;74.450;2022-11-25T01:37:42;275.67;;;115.88;;
31238;SDS011;17871;31.584;74.450;2022-11-25T01:40:12;314.80;;;136.18;;
31238;SDS011;17871;31.584;74.450;2022-11-25T01:42:46;316.80;;;136.98;;
31238;SDS011;17871;31.584;74.450;2022-11-25T01:48:50;304.85;;;128.57;;
31238;SDS011;17871;31.584;74.450;2022-11-25T01:51:18;307.83;;;127.43;;
31238;SDS011;17871;31.584;74.450;2022-11-25T01:54:11;288.27;;;121.35;;
31238;SDS011;17871;31.584;74.450;2022-11-25T01:56:48;254.57;;;115.72;;
31238;SDS011;17871;31.584;74.450;2022-11-25T01:59:22;251.88;;;110.78;;
31238;SDS011;17871;31.584;74.450;2022-11-25T02:01:52;243.90;;;114.00;;
31238;SDS011;17871;31.584;74.450;2022-11-25T02:04:25;261.07;;;108.53;;
31238;SDS011;17871;31.584;74.450;2022-11-25T02:07:04;275.63;;;110.53;;
31238;SDS011;17871;31.584;74.450;2022-11-25T02:09:43;264.73;;;110.68;;
31238;SDS011;17871;31.584;74.450;2022-11-25T02:12:15;245.02;;;105.55;;
31238;SDS011;17871;31.584;74.450;2022-11-25T02:14:48;256.00;;;109.15;;
31238;SDS011;17871;31.584;74.450;2022-11-25T02:17:19;235.87;;;109.03;;
31238;SDS011;17871;31.584;74.450;2022-11-25T02:25:44;249.77;;;112.28;;
31238;SDS011;17871;31.584;74.450;2022-11-25T02:28:26;248.90;;;111.28;;
31238;SDS011;17871;31.584;74.450;2022-11-25T02:31:02;256.08;;;113.18;;
31238;SDS011;17871;31.584;74.450;2022-11-25T02:33:34;315.80;;;128.70;;
31238;SDS011;17871;31.584;74.450;2022-11-25T02:36:05;267.85;;;117.03;;
31238;SDS011;17871;31.584;74.450;2022-11-25T02:38:52;253.02;;;110.57;;
31238;SDS011;17871;31.584;74.450;2022-11-25T02:41:37;246.90;;;107.45;;
31238;SDS011;17871;31.584;74.450;2022-11-25T02:44:12;241.00;;;108.67;;
31238;SDS011;17871;31.584;74.450;2022-11-25T02:46:43;251.90;;;111.22;;
31238;SDS011;17871;31.584;74.450;2022-11-25T02:49:13;258.08;;;117.90;;
31238;SDS011;17871;31.584;74.450;2022-11-25T02:51:44;271.92;;;106.68;;
31238;SDS011;17871;31.584;74.450;2022-11-25T02:54:16;242.60;;;101.90;;
31238;SDS011;17871;31.584;74.450;2022-11-25T02:56:48;317.83;;;143.10;;
31238;SDS011;17871;31.584;74.450;2022-11-25T02:59:19;271.05;;;122.95;;
31238;SDS011;17871;31.584;74.450;2022-11-25T03:01:49;264.90;;;115.40;;
31238;SDS011;17871;31.584;74.450;2022-11-25T03:04:20;228.90;;;105.53;;
31238;SDS011;17871;31.584;74.450;2022-11-25T03:06:50;229.05;;;104.97;;
31238;SDS011;17871;31.584;74.450;2022-11-25T03:09:22;238.10;;;104.40;;
31238;SDS011;17871;31.584;74.450;2022-11-25T03:11:53;246.00;;;111.22;;
31238;SDS011;17871;31.584;74.450;2022-11-25T03:14:41;264.08;;;118.03;;
31238;SDS011;17871;31.584;74.450;2022-11-25T03:17:12;263.50;;;114.93;;
31238;SDS011;17871;31.584;74.450;2022-11-25T03:19:43;230.85;;;109.25;;
31238;SDS011;17871;31.584;74.450;2022-11-25T03:22:15;239.77;;;103.47;;
31238;SDS011;17871;31.584;74.450;2022-11-25T03:24:45;240.45;;;104.75;;
31238;SDS011;17871;31.584;74.450;2022-11-25T03:27:16;223.63;;;98.20;;
31238;SDS011;17871;31.584;74.450;2022-11-25T03:29:46;241.43;;;102.35;;
31238;SDS011;17871;31.584;74.450;2022-11-25T03:32:17;239.63;;;102.10;;
31238;SDS011;17871;31.584;74.450;2022-11-25T03:34:47;234.10;;;102.32;;
31238;SDS011;17871;31.584;74.450;2022-11-25T03:37:18;219.98;;;97.05;;
31238;SDS011;17871;31.584;74.450;2022-11-25T03:39:49;231.93;;;102.45;;
31238;SDS011;17871;31.584;74.450;2022-11-25T03:42:19;231.43;;;101.15;;
31238;SDS011;17871;31.584;74.450;2022-11-25T03:44:50;211.23;;;99.13;;
31238;SDS011;17871;31.584;74.450;2022-11-25T03:47:19;230.07;;;100.57;;
31238;SDS011;17871;31.584;74.450;2022-11-25T03:49:49;239.40;;;107.07;;
31238;SDS011;17871;31.584;74.450;2022-11-25T03:52:19;256.58;;;109.35;;
31238;SDS011;17871;31.584;74.450;2022-11-25T03:54:48;231.10;;;110.57;;
31238;SDS011;17871;31.584;74.450;2022-11-25T03:57:21;216.05;;;106.05;;
31238;SDS011;17871;31.584;74.450;2022-11-25T03:59:51;227.23;;;102.25;;
31238;SDS011;17871;31.584;74.450;2022-11-25T04:02:20;237.25;;;112.50;;
31238;SDS011;17871;31.584;74.450;2022-11-25T04:04:50;237.10;;;106.65;;
31238;SDS011;17871;31.584;74.450;2022-11-25T04:07:19;264.38;;;108.57;;
31238;SDS011;17871;31.584;74.450;2022-11-25T04:09:49;241.45;;;108.60;;
31238;SDS011;17871;31.584;74.450;2022-11-25T04:12:23;260.55;;;110.25;;
31238;SDS011;17871;31.584;74.450;2022-11-25T04:15:14;232.52;;;107.50;;
31238;SDS011;17871;31.584;74.450;2022-11-25T04:17:48;242.82;;;108.63;;
31238;SDS011;17871;31.584;74.450;2022-11-25T04:20:18;240.45;;;108.60;;
31238;SDS011;17871;31.584;74.450;2022-11-25T04:22:56;246.23;;;109.47;;
31238;SDS011;17871;31.584;74.450;2022-11-25T04:25:26;255.90;;;105.90;;
31238;SDS011;17871;31.584;74.450;2022-11-25T04:27:56;298.83;;;111.93;;
31238;SDS011;17871;31.584;74.450;2022-11-25T04:30:31;260.88;;;109.68;;
31238;SDS011;17871;31.584;74.450;2022-11-25T04:33:02;243.77;;;105.20;;
31238;SDS011;17871;31.584;74.450;2022-11-25T04:35:32;240.90;;;107.88;;
31238;SDS011;17871;31.584;74.450;2022-11-25T04:38:02;247.65;;;112.45;;
31238;SDS011;17871;31.584;74.450;2022-11-25T04:40:34;250.77;;;109.65;;
31238;SDS011;17871;31.584;74.450;2022-11-25T04:43:16;233.45;;;112.68;;
31238;SDS011;17871;31.584;74.450;2022-11-25T04:45:56;213.90;;;106.90;;
31238;SDS011;17871;31.584;74.450;2022-11-25T04:48:44;228.70;;;107.90;;
31238;SDS011;17871;31.584;74.450;2022-11-25T04:51:15;237.13;;;103.82;;
31238;SDS011;17871;31.584;74.450;2022-11-25T04:53:49;260.25;;;108.55;;
31238;SDS011;17871;31.584;74.450;2022-11-25T04:56:21;235.73;;;105.07;;
31238;SDS011;17871;31.584;74.450;2022-11-25T04:58:52;243.20;;;106.07;;
31238;SDS011;17871;31.584;74.450;2022-11-25T05:01:44;225.50;;;101.70;;
31238;SDS011;17871;31.584;74.450;2022-11-25T05:04:30;214.80;;;99.22;;
31238;SDS011;17871;31.584;74.450;2022-11-25T05:07:01;206.40;;;99.30;;
31238;SDS011;17871;31.584;74.450;2022-11-25T05:09:30;214.82;;;99.75;;
31238;SDS011;17871;31.584;74.450;2022-11-25T05:12:17;223.60;;;103.00;;
31238;SDS011;17871;31.584;74.450;2022-11-25T05:14:48;218.88;;;101.20;;
31238;SDS011;17871;31.584;74.450;2022-11-25T05:17:21;241.32;;;108.93;;
31238;SDS011;17871;31.584;74.450;2022-11-25T05:19:54;217.55;;;100.65;;
31238;SDS011;17871;31.584;74.450;2022-11-25T05:22:26;215.10;;;100.22;;
31238;SDS011;17871;31.584;74.450;2022-11-25T05:24:57;226.23;;;102.93;;
31238;SDS011;17871;31.584;74.450;2022-11-25T05:27:29;215.32;;;99.65;;
31238;SDS011;17871;31.584;74.450;2022-11-25T05:30:04;209.50;;;100.63;;
31238;SDS011;17871;31.584;74.450;2022-11-25T05:32:34;220.05;;;102.35;;
31238;SDS011;17871;31.584;74.450;2022-11-25T05:37:39;205.82;;;96.28;;
31238;SDS011;17871;31.584;74.450;2022-11-25T05:40:09;195.43;;;89.00;;
31238;SDS011;17871;31.584;74.450;2022-11-25T05:43:02;207.20;;;94.35;;
31238;SDS011;17871;31.584;74.450;2022-11-25T05:45:36;220.43;;;97.93;;
31238;SDS011;17871;31.584;74.450;2022-11-25T05:48:08;213.70;;;98.95;;
31238;SDS011;17871;31.584;74.450;2022-11-25T05:50:38;183.52;;;91.28;;
31238;SDS011;17871;31.584;74.450;2022-11-25T05:53:20;169.25;;;85.25;;
31238;SDS011;17871;31.584;74.450;2022-11-25T05:55:57;175.73;;;83.03;;
31238;SDS011;17871;31.584;74.450;2022-11-25T05:58:46;168.32;;;78.03;;
31238;SDS011;17871;31.584;74.450;2022-11-25T06:01:17;165.70;;;77.65;;
31238;SDS011;17871;31.584;74.450;2022-11-25T06:03:49;160.50;;;72.68;;
31238;SDS011;17871;31.584;74.450;2022-11-25T06:06:19;150.07;;;72.82;;
31238;SDS011;17871;31.584;74.450;2022-11-25T06:08:50;166.02;;;75.53;;
31238;SDS011;17871;31.584;74.450;2022-11-25T06:11:22;154.83;;;72.33;;
31238;SDS011;17871;31.584;74.450;2022-11-25T06:13:54;161.00;;;75.75;;
31238;SDS011;17871;31.584;74.450;2022-11-25T06:16:27;147.18;;;68.35;;
31238;SDS011;17871;31.584;74.450;2022-11-25T06:19:17;136.07;;;64.38;;
31238;SDS011;17871;31.584;74.450;2022-11-25T06:21:47;150.68;;;70.50;;
31238;SDS011;17871;31.584;74.450;2022-11-25T06:24:17;160.13;;;70.00;;
31238;SDS011;17871;31.584;74.450;2022-11-25T06:26:53;154.05;;;67.72;;
31238;SDS011;17871;31.584;74.450;2022-11-25T06:29:23;155.23;;;68.05;;
31238;SDS011;17871;31.584;74.450;2022-11-25T06:31:54;143.20;;;67.00;;
31238;SDS011;17871;31.584;74.450;2022-11-25T06:34:30;155.02;;;66.88;;
31238;SDS011;17871;31.584;74.450;2022-11-25T06:37:02;146.25;;;67.32;;
31238;SDS011;17871;31.584;74.450;2022-11-25T06:39:32;140.02;;;66.50;;
31238;SDS011;17871;31.584;74.450;2022-11-25T06:42:03;154.50;;;68.75;;
31238;SDS011;17871;31.584;74.450;2022-11-25T06:44:32;156.18;;;70.38;;
31238;SDS011;17871;31.584;74.450;2022-11-25T06:47:04;169.88;;;71.55;;
31238;SDS011;17871;31.584;74.450;2022-11-25T06:49:33;156.88;;;72.88;;
31238;SDS011;17871;31.584;74.450;2022-11-25T06:52:03;150.20;;;75.03;;
31238;SDS011;17871;31.584;74.450;2022-11-25T06:54:33;161.73;;;73.53;;
31238;SDS011;17871;31.584;74.450;2022-11-25T06:57:04;158.32;;;74.63;;
31238;SDS011;17871;31.584;74.450;2022-11-25T06:59:34;166.75;;;74.82;;
31238;SDS011;17871;31.584;74.450;2022-11-25T07:02:03;182.93;;;80.13;;
31238;SDS011;17871;31.584;74.450;2022-11-25T07:04:33;162.55;;;77.85;;
31238;SDS011;17871;31.584;74.450;2022-11-25T07:07:04;171.75;;;78.10;;
31238;SDS011;17871;31.584;74.450;2022-11-25T07:09:34;166.32;;;72.85;;
31238;SDS011;17871;31.584;74.450;2022-11-25T07:12:04;136.40;;;64.97;;
31238;SDS011;17871;31.584;74.450;2022-11-25T07:14:35;133.55;;;64.95;;
31238;SDS011;17871;31.584;74.450;2022-11-25T07:17:04;154.15;;;75.80;;
31238;SDS011;17871;31.584;74.450;2022-11-25T07:19:38;144.98;;;70.20;;
31238;SDS011;17871;31.584;74.450;2022-11-25T07:22:08;144.95;;;73.38;;
31238;SDS011;17871;31.584;74.450;2022-11-25T07:24:39;160.18;;;72.13;;
31238;SDS011;17871;31.584;74.450;2022-11-25T07:27:12;159.85;;;72.93;;
31238;SDS011;17871;31.584;74.450;2022-11-25T07:29:41;153.82;;;71.63;;
31238;SDS011;17871;31.584;74.450;2022-11-25T07:32:33;153.15;;;71.43;;
31238;SDS011;17871;31.584;74.450;2022-11-25T07:35:04;159.52;;;72.82;;
31238;SDS011;17871;31.584;74.450;2022-11-25T07:37:35;171.88;;;70.93;;
31238;SDS011;17871;31.584;74.450;2022-11-25T07:40:05;170.57;;;71.53;;
31238;SDS011;17871;31.584;74.450;2022-11-25T07:42:35;157.27;;;72.05;;
31238;SDS011;17871;31.584;74.450;2022-11-25T07:45:07;160.00;;;72.82;;
31238;SDS011;17871;31.584;74.450;2022-11-25T07:47:43;141.82;;;66.35;;
31238;SDS011;17871;31.584;74.450;2022-11-25T07:50:13;157.05;;;73.22;;
31238;SDS011;17871;31.584;74.450;2022-11-25T07:52:46;162.93;;;77.05;;
31238;SDS011;17871;31.584;74.450;2022-11-25T07:55:15;189.48;;;88.93;;
31238;SDS011;17871;31.584;74.450;2022-11-25T07:57:47;223.68;;;95.20;;
31238;SDS011;17871;31.584;74.450;2022-11-25T08:00:19;211.23;;;100.30;;
31238;SDS011;17871;31.584;74.450;2022-11-25T08:02:50;212.27;;;97.78;;
31238;SDS011;17871;31.584;74.450;2022-11-25T08:05:21;236.32;;;100.75;;
31238;SDS011;17871;31.584;74.450;2022-11-25T08:07:50;216.25;;;93.47;;
31238;SDS011;17871;31.584;74.450;2022-11-25T08:10:20;209.10;;;94.40;;
31238;SDS011;17871;31.584;74.450;2022-11-25T08:12:50;225.88;;;100.25;;
31238;SDS011;17871;31.584;74.450;2022-11-25T08:15:20;217.60;;;100.88;;
31238;SDS011;17871;31.584;74.450;2022-11-25T08:17:52;232.35;;;102.80;;
31238;SDS011;17871;31.584;74.450;2022-11-25T08:20:22;240.68;;;101.82;;
31238;SDS011;17871;31.584;74.450;2022-11-25T08:22:52;219.45;;;97.03;;
31238;SDS011;17871;31.584;74.450;2022-11-25T08:25:24;202.38;;;89.60;;
31238;SDS011;17871;31.584;74.450;2022-11-25T08:27:54;197.07;;;91.50;;
31238;SDS011;17871;31.584;74.450;2022-11-25T08:30:25;207.77;;;91.07;;
31238;SDS011;17871;31.584;74.450;2022-11-25T08:32:55;204.23;;;91.32;;
31238;SDS011;17871;31.584;74.450;2022-11-25T08:35:26;232.00;;;90.60;;
31238;SDS011;17871;31.584;74.450;2022-11-25T08:37:56;193.30;;;83.53;;
31238;SDS011;17871;31.584;74.450;2022-11-25T08:40:25;204.02;;;87.03;;
31238;SDS011;17871;31.584;74.450;2022-11-25T08:42:55;200.10;;;89.30;;
31238;SDS011;17871;31.584;74.450;2022-11-25T08:45:26;178.40;;;87.70;;
31238;SDS011;17871;31.584;74.450;2022-11-25T08:47:56;201.20;;;85.00;;
31238;SDS011;17871;31.584;74.450;2022-11-25T08:50:26;205.32;;;86.03;;
31238;SDS011;17871;31.584;74.450;2022-11-25T08:55:29;181.65;;;79.93;;
31238;SDS011;17871;31.584;74.450;2022-11-25T08:58:04;197.20;;;84.80;;
31238;SDS011;17871;31.584;74.450;2022-11-25T09:00:41;190.55;;;82.25;;
31238;SDS011;17871;31.584;74.450;2022-11-25T09:03:14;159.85;;;74.30;;
31238;SDS011;17871;31.584;74.450;2022-11-25T09:05:51;185.90;;;78.00;;
31238;SDS011;17871;31.584;74.450;2022-11-25T09:08:24;179.10;;;75.78;;
31238;SDS011;17871;31.584;74.450;2022-11-25T09:10:54;169.30;;;78.53;;
31238;SDS011;17871;31.584;74.450;2022-11-25T09:13:24;177.13;;;80.32;;
31238;SDS011;17871;31.584;74.450;2022-11-25T09:15:55;193.77;;;86.63;;
31238;SDS011;17871;31.584;74.450;2022-11-25T09:18:28;181.55;;;85.93;;
31238;SDS011;17871;31.584;74.450;2022-11-25T09:21:05;205.23;;;85.63;;
31238;SDS011;17871;31.584;74.450;2022-11-25T09:23:41;185.13;;;85.93;;
31238;SDS011;17871;31.584;74.450;2022-11-25T09:26:22;203.35;;;86.47;;
31238;SDS011;17871;31.584;74.450;2022-11-25T09:31:24;182.70;;;80.30;;
31238;SDS011;17871;31.584;74.450;2022-11-25T09:33:55;180.88;;;79.38;;
31238;SDS011;17871;31.584;74.450;2022-11-25T09:36:25;177.75;;;76.20;;
31238;SDS011;17871;31.584;74.450;2022-11-25T09:39:03;156.88;;;76.72;;
31238;SDS011;17871;31.584;74.450;2022-11-25T09:41:50;172.15;;;77.47;;
31238;SDS011;17871;31.584;74.450;2022-11-25T09:53:42;160.55;;;71.72;;
31238;SDS011;17871;31.584;74.450;2022-11-25T09:56:30;162.52;;;69.85;;
31238;SDS011;17871;31.584;74.450;2022-11-25T09:59:36;144.00;;;64.80;;
31238;SDS011;17871;31.584;74.450;2022-11-25T10:02:30;135.98;;;65.57;;
31238;SDS011;17871;31.584;74.450;2022-11-25T10:05:04;146.02;;;64.05;;
31238;SDS011;17871;31.584;74.450;2022-11-25T10:07:37;141.55;;;62.90;;
31238;SDS011;17871;31.584;74.450;2022-11-25T10:10:45;160.77;;;65.25;;
31238;SDS011;17871;31.584;74.450;2022-11-25T10:13:36;140.30;;;63.10;;
31238;SDS011;17871;31.584;74.450;2022-11-25T10:16:25;148.48;;;61.17;;
31238;SDS011;17871;31.584;74.450;2022-11-25T10:19:06;136.38;;;57.50;;
31238;SDS011;17871;31.584;74.450;2022-11-25T10:21:42;137.13;;;56.47;;
31238;SDS011;17871;31.584;74.450;2022-11-25T10:24:15;128.07;;;56.67;;
31238;SDS011;17871;31.584;74.450;2022-11-25T10:27:04;138.57;;;58.42;;
31238;SDS011;17871;31.584;74.450;2022-11-25T10:29:38;141.70;;;60.08;;
31238;SDS011;17871;31.584;74.450;2022-11-25T10:32:21;127.80;;;58.40;;
31238;SDS011;17871;31.584;74.450;2022-11-25T10:34:56;129.88;;;57.53;;
31238;SDS011;17871;31.584;74.450;2022-11-25T10:37:32;132.02;;;54.70;;
31238;SDS011;17871;31.584;74.450;2022-11-25T10:40:09;145.73;;;59.53;;
31238;SDS011;17871;31.584;74.450;2022-11-25T10:42:46;149.05;;;60.47;;
31238;SDS011;17871;31.584;74.450;2022-11-25T10:45:15;135.13;;;58.33;;
31238;SDS011;17871;31.584;74.450;2022-11-25T10:47:59;152.10;;;59.85;;
31238;SDS011;17871;31.584;74.450;2022-11-25T10:53:29;121.35;;;53.08;;
31238;SDS011;17871;31.584;74.450;2022-11-25T10:56:01;111.75;;;48.83;;
31238;SDS011;17871;31.584;74.450;2022-11-25T10:58:34;124.45;;;50.22;;
31238;SDS011;17871;31.584;74.450;2022-11-25T11:03:44;119.57;;;52.78;;
31238;SDS011;17871;31.584;74.450;2022-11-25T11:06:38;128.45;;;54.10;;
31238;SDS011;17871;31.584;74.450;2022-11-25T11:12:20;128.07;;;51.65;;
31238;SDS011;17871;31.584;74.450;2022-11-25T11:14:52;115.30;;;49.95;;
31238;SDS011;17871;31.584;74.450;2022-11-25T11:17:42;142.05;;;54.42;;
31238;SDS011;17871;31.584;74.450;2022-11-25T11:20:17;122.85;;;53.05;;
31238;SDS011;17871;31.584;74.450;2022-11-25T11:23:07;127.38;;;55.13;;
31238;SDS011;17871;31.584;74.450;2022-11-25T11:25:42;128.85;;;56.60;;
31238;SDS011;17871;31.584;74.450;2022-11-25T11:28:30;138.27;;;56.53;;
31238;SDS011;17871;31.584;74.450;2022-11-25T11:31:19;132.20;;;57.00;;
31238;SDS011;17871;31.584;74.450;2022-11-25T11:48:59;177.15;;;63.90;;
31238;SDS011;17871;31.584;74.450;2022-11-25T11:54:44;157.52;;;66.20;;
31238;SDS011;17871;31.584;74.450;2022-11-25T11:57:28;178.80;;;68.10;;
31238;SDS011;17871;31.584;74.450;2022-11-25T12:00:20;190.77;;;69.20;;
31238;SDS011;17871;31.584;74.450;2022-11-25T12:05:45;199.10;;;78.63;;
31238;SDS011;17871;31.584;74.450;2022-11-25T12:11:34;211.15;;;82.38;;
31238;SDS011;17871;31.584;74.450;2022-11-25T12:17:14;243.57;;;92.80;;
31238;SDS011;17871;31.584;74.450;2022-11-25T12:19:48;218.18;;;93.25;;
31238;SDS011;17871;31.584;74.450;2022-11-25T12:25:15;235.27;;;92.90;;
31238;SDS011;17871;31.584;74.450;2022-11-25T12:27:52;244.85;;;91.72;;
31238;SDS011;17871;31.584;74.450;2022-11-25T12:31:25;245.77;;;99.22;;
31238;SDS011;17871;31.584;74.450;2022-11-25T12:36:19;248.40;;;102.53;;
31238;SDS011;17871;31.584;74.450;2022-11-25T12:39:02;241.50;;;102.43;;
31238;SDS011;17871;31.584;74.450;2022-11-25T12:44:30;273.42;;;112.30;;
31238;SDS011;17871;31.584;74.450;2022-11-25T12:47:08;248.27;;;108.07;;
31238;SDS011;17871;31.584;74.450;2022-11-25T12:49:43;251.38;;;110.40;;
31238;SDS011;17871;31.584;74.450;2022-11-25T12:55:05;245.35;;;109.18;;
31238;SDS011;17871;31.584;74.450;2022-11-25T12:57:44;272.38;;;112.10;;
31238;SDS011;17871;31.584;74.450;2022-11-25T13:00:22;302.10;;;115.10;;
31238;SDS011;17871;31.584;74.450;2022-11-25T13:03:19;272.75;;;120.82;;
31238;SDS011;17871;31.584;74.450;2022-11-25T13:16:55;280.50;;;117.15;;
31238;SDS011;17871;31.584;74.450;2022-11-25T13:19:27;264.85;;;116.28;;
31238;SDS011;17871;31.584;74.450;2022-11-25T13:22:04;326.50;;;130.10;;
31238;SDS011;17871;31.584;74.450;2022-11-25T13:24:57;376.13;;;157.82;;
31238;SDS011;17871;31.584;74.450;2022-11-25T13:35:54;337.05;;;133.32;;
31238;SDS011;17871;31.584;74.450;2022-11-25T13:43:56;326.45;;;131.05;;
31238;SDS011;17871;31.584;74.450;2022-11-25T13:54:48;335.23;;;133.93;;
31238;SDS011;17871;31.584;74.450;2022-11-25T13:59:59;311.58;;;131.80;;
31238;SDS011;17871;31.584;74.450;2022-11-25T14:03:01;302.60;;;127.68;;
31238;SDS011;17871;31.584;74.450;2022-11-25T14:11:51;306.08;;;123.75;;
31238;SDS011;17871;31.584;74.450;2022-11-25T14:23:36;315.60;;;127.70;;
31238;SDS011;17871;31.584;74.450;2022-11-25T14:26:03;303.77;;;132.82;;
31238;SDS011;17871;31.584;74.450;2022-11-25T14:31:40;327.15;;;134.68;;
31238;SDS011;17871;31.584;74.450;2022-11-25T14:34:21;303.30;;;136.48;;
31238;SDS011;17871;31.584;74.450;2022-11-25T14:37:03;302.02;;;139.75;;
31238;SDS011;17871;31.584;74.450;2022-11-25T14:40:14;319.70;;;138.07;;
31238;SDS011;17871;31.584;74.450;2022-11-25T14:43:16;292.48;;;131.88;;
31238;SDS011;17871;31.584;74.450;2022-11-25T14:46:12;302.20;;;133.00;;
31238;SDS011;17871;31.584;74.450;2022-11-25T14:49:01;297.55;;;130.88;;
31238;SDS011;17871;31.584;74.450;2022-11-25T14:51:51;300.98;;;130.93;;
31238;SDS011;17871;31.584;74.450;2022-11-25T14:54:22;304.35;;;134.73;;
31238;SDS011;17871;31.584;74.450;2022-11-25T14:56:52;293.52;;;134.38;;
31238;SDS011;17871;31.584;74.450;2022-11-25T14:59:21;278.15;;;127.35;;
31238;SDS011;17871;31.584;74.450;2022-11-25T15:01:53;289.40;;;129.55;;
31238;SDS011;17871;31.584;74.450;2022-11-25T15:04:30;296.85;;;131.23;;
31238;SDS011;17871;31.584;74.450;2022-11-25T15:07:00;297.90;;;131.65;;
31238;SDS011;17871;31.584;74.450;2022-11-25T15:09:53;312.27;;;133.15;;
31238;SDS011;17871;31.584;74.450;2022-11-25T15:12:24;288.83;;;130.60;;
31238;SDS011;17871;31.584;74.450;2022-11-25T15:14:59;290.55;;;128.80;;
31238;SDS011;17871;31.584;74.450;2022-11-25T15:17:29;278.35;;;129.18;;
31238;SDS011;17871;31.584;74.450;2022-11-25T15:20:02;281.95;;;128.18;;
31238;SDS011;17871;31.584;74.450;2022-11-25T15:22:44;275.60;;;129.75;;
31238;SDS011;17871;31.584;74.450;2022-11-25T15:25:18;283.63;;;129.13;;
31238;SDS011;17871;31.584;74.450;2022-11-25T15:27:50;301.80;;;130.05;;
31238;SDS011;17871;31.584;74.450;2022-11-25T15:30:25;274.48;;;128.38;;
31238;SDS011;17871;31.584;74.450;2022-11-25T15:32:59;331.67;;;152.65;;
31238;SDS011;17871;31.584;74.450;2022-11-25T15:35:32;301.30;;;136.25;;
31238;SDS011;17871;31.584;74.450;2022-11-25T15:38:17;273.30;;;131.85;;
31238;SDS011;17871;31.584;74.450;2022-11-25T15:41:06;291.08;;;128.90;;
31238;SDS011;17871;31.584;74.450;2022-11-25T15:43:47;347.08;;;154.00;;
31238;SDS011;17871;31.584;74.450;2022-11-25T15:46:22;319.45;;;142.40;;
31238;SDS011;17871;31.584;74.450;2022-11-25T15:48:54;289.10;;;129.68;;
31238;SDS011;17871;31.584;74.450;2022-11-25T15:51:43;269.13;;;130.65;;
31238;SDS011;17871;31.584;74.450;2022-11-25T15:54:20;279.30;;;133.05;;
31238;SDS011;17871;31.584;74.450;2022-11-25T15:56:58;313.40;;;138.35;;
31238;SDS011;17871;31.584;74.450;2022-11-25T16:10:29;303.48;;;139.32;;
31238;SDS011;17871;31.584;74.450;2022-11-25T16:21:28;297.15;;;155.05;;
31238;SDS011;17871;31.584;74.450;2022-11-25T16:24:33;318.55;;;154.82;;
31238;SDS011;17871;31.584;74.450;2022-11-25T16:27:28;312.27;;;147.93;;
31238;SDS011;17871;31.584;74.450;2022-11-25T16:32:33;289.80;;;142.30;;
31238;SDS011;17871;31.584;74.450;2022-11-25T16:37:44;277.65;;;133.48;;
31238;SDS011;17871;31.584;74.450;2022-11-25T16:40:17;278.63;;;133.73;;
31238;SDS011;17871;31.584;74.450;2022-11-25T16:42:47;253.77;;;127.15;;
31238;SDS011;17871;31.584;74.450;2022-11-25T16:45:19;266.80;;;131.48;;
31238;SDS011;17871;31.584;74.450;2022-11-25T16:47:50;270.05;;;130.70;;
31238;SDS011;17871;31.584;74.450;2022-11-25T16:50:22;272.67;;;131.80;;
31238;SDS011;17871;31.584;74.450;2022-11-25T16:52:52;270.90;;;132.10;;
31238;SDS011;17871;31.584;74.450;2022-11-25T16:55:21;269.67;;;130.23;;
31238;SDS011;17871;31.584;74.450;2022-11-25T16:57:55;282.95;;;132.20;;
31238;SDS011;17871;31.584;74.450;2022-11-25T17:00:24;288.42;;;133.93;;
31238;SDS011;17871;31.584;74.450;2022-11-25T17:02:54;295.75;;;135.52;;
31238;SDS011;17871;31.584;74.450;2022-11-25T17:05:24;316.40;;;150.40;;